Tiempo atmosférico en la estación meteorológica de Alosno, Huelva (276 m.)



Fecha
DESCASC
Temp. máxima en grados centígrados (hora)
DESCASC
Temp. mínima en grados centígrados (hora)
DESCASC
Temp. media en grados centígrados
DESCASC
Racha de viento máxima en m/sg (hora)
DESCASC
Velocidad máxima media en intervalos de 10 minutos(hora)
DESCASC
Precipitaciones diarias en mm
DESCASC
Precipitaciones de 00:00 a 06:00 en mm
DESCASC
Precipitaciones de 06:00 a 12:00 en mm
DESCASC
Precipitaciones de 12:00 a 18:00 en mm
DESCASC
Precipitaciones de 18:00 a 24:00 en mm
DESCASC

Gráficas

Temp. máximas Temp. mínimas Temp. medias Precipitaciones Rachas de viento máximas Velocidades máximas media en intervalos de 10 minutos

Datos horarios

Fecha y hora oficial Temperatura (ºC) Velocidad del viento (km/h) Dirección del viento Racha (km/h) Dirección de racha Precipitación (mm) Presión (hPa) Tendencia (hPa) Humedad (%)
2020-02-16 23:00:00 12.3 12 Noroeste 16 Noroeste 0 -- -- 86
2020-02-16 22:00:00 13.4 10 Noroeste 14 Noroeste 0 -- -- 84
2020-02-16 21:00:00 14.5 7 Noroeste 13 Oeste 0 -- -- 83
2020-02-16 20:00:00 15.3 10 Sudoeste 15 Sudoeste 0 -- -- 82
2020-02-16 19:00:00 18.3 4 Noroeste 13 Noroeste 0 -- -- 61
2020-02-16 18:00:00 19.6 9 Noroeste 21 Noroeste 0 -- -- 55
2020-02-16 17:00:00 20 9 Noroeste 19 Noroeste 0 -- -- 57
2020-02-16 16:00:00 19.8 6 Noroeste 13 Noroeste 0 -- -- 61
2020-02-16 15:00:00 19.5 6 Oeste 17 Oeste 0 -- -- 63
2020-02-16 14:00:00 18.8 6 Sudoeste 14 Sudoeste 0 -- -- 65
2020-02-16 13:00:00 18.1 6 Sur 12 Sur 0 -- -- 70
2020-02-16 12:00:00 16.3 7 Sur 11 Sur 0 -- -- 77
2020-02-16 11:00:00 15.4 6 Sur 11 Sudoeste 0 -- -- 82
2020-02-16 10:00:00 13.3 4 Este 7 Este 0 -- -- 90
2020-02-16 09:00:00 9.7 0 Calma 7 Noroeste 0 -- -- 99
2020-02-16 08:00:00 9.5 5 Noroeste 10 Oeste 0 -- -- 98
2020-02-16 07:00:00 9.6 4 Oeste 9 Oeste 0 -- -- 98
2020-02-16 06:00:00 10.2 2 Oeste 9 Noroeste 0 -- -- 97
2020-02-16 05:00:00 10.5 5 Oeste 8 Noroeste 0 -- -- 96
2020-02-16 04:00:00 11.1 3 Oeste 8 Noroeste 0 -- -- 95
2020-02-16 03:00:00 12 3 Oeste 9 Noroeste 0 -- -- 92
2020-02-16 02:00:00 12.7 3 Oeste 6 Noroeste 0 -- -- 89
2020-02-16 01:00:00 12.7 3 Oeste 6 Noroeste 0 -- -- 84
2020-02-16 00:00:00 13.1 0 Calma 10 Oeste 0 -- -- 83
2020-02-15 23:00:00 14.4 9 Oeste 14 Oeste 0 -- -- 77
2020-02-15 22:00:00 14.2 10 Sudoeste 12 Oeste 0 -- -- 84
2020-02-15 21:00:00 14.2 7 Sudoeste 14 Sudoeste 0 -- -- 86
2020-02-15 20:00:00 15.2 9 Sudoeste 17 Sur 0 -- -- 80
2020-02-15 19:00:00 18.1 0 Calma 8 Norte 0 -- -- 64
2020-02-15 18:00:00 18.8 6 Noroeste 18 Sudoeste 0 -- -- 61
2020-02-15 17:00:00 20 2 Noroeste 13 Sur 0 -- -- 58
2020-02-15 16:00:00 18.6 6 Sur 14 Sur 0 -- -- 63
2020-02-15 15:00:00 18.6 4 Sudeste 16 Sur 0 -- -- 65
2020-02-15 14:00:00 17.8 8 Sur 17 Sur 0 -- -- 67
2020-02-15 13:00:00 17.2 10 Sur 18 Sur 0 -- -- 73
2020-02-15 12:00:00 16 7 Sur 20 Sur 0 -- -- 75
2020-02-15 11:00:00 14.5 11 Sur 20 Sudeste 0 -- -- 78
2020-02-15 10:00:00 13.6 4 Sudeste 10 Sur 0 -- -- 81
2020-02-15 09:00:00 10.9 3 Sudeste 10 Este 0 -- -- 91
2020-02-15 08:00:00 10.8 6 Este 8 Este 0 -- -- 91
2020-02-15 07:00:00 10.7 3 Este 4 Este 0 -- -- 92
2020-02-15 06:00:00 10.6 0 Calma 4 Noroeste 0 -- -- 93
2020-02-15 05:00:00 10.4 0 Calma 12 Noroeste 0 -- -- 94
2020-02-15 04:00:00 11.8 4 Norte 8 Nordeste 0 -- -- 87
2020-02-15 03:00:00 12.1 4 Nordeste 8 Este 0 -- -- 87
2020-02-15 02:00:00 12.3 3 Nordeste 9 Nordeste 0 -- -- 87
2020-02-15 01:00:00 12.7 6 Nordeste 8 Nordeste 0 -- -- 86
2020-02-15 00:00:00 13 4 Este 9 Nordeste 0 -- -- 85
2020-02-14 23:00:00 13 5 Norte 8 Norte 0 -- -- 85
2020-02-14 22:00:00 13.1 4 Noroeste 14 Noroeste 0 -- -- 85
2020-02-14 21:00:00 14 6 Noroeste 18 Norte 0 -- -- 82
2020-02-14 20:00:00 15 9 Noroeste 15 Noroeste 0 -- -- 80
2020-02-14 19:00:00 16.8 7 Noroeste 17 Noroeste 0 -- -- 68
2020-02-14 18:00:00 18.5 11 Norte 18 Norte 0 -- -- 60
2020-02-14 17:00:00 19 7 Noroeste 22 Norte 0 -- -- 56
2020-02-14 16:00:00 19.2 4 Noroeste 10 Norte 0 -- -- 55
2020-02-14 15:00:00 18.7 3 Este 13 Sudoeste 0 -- -- 56
2020-02-14 14:00:00 17.8 7 Nordeste 17 Sudeste 0 -- -- 61
2020-02-14 13:00:00 17 5 Nordeste 14 Este 0 -- -- 65
2020-02-14 12:00:00 16 6 Este 10 Este 0 -- -- 67
2020-02-14 11:00:00 14 7 Nordeste 14 Nordeste 0 -- -- 73
2020-02-14 10:00:00 12.7 7 Este 13 Este 0 -- -- 78
2020-02-14 09:00:00 10.7 3 Este 6 Nordeste 0 -- -- 85
2020-02-14 08:00:00 9.6 4 Este 9 Nordeste 0 -- -- 89
2020-02-14 07:00:00 9.7 9 Nordeste 11 Nordeste 0 -- -- 88
2020-02-14 06:00:00 9.8 10 Norte 12 Norte 0 -- -- 88
2020-02-14 05:00:00 10.1 8 Norte 11 Norte 0 -- -- 87
2020-02-14 04:00:00 10.4 7 Norte 13 Norte 0 -- -- 86
2020-02-14 03:00:00 11.6 10 Norte 17 Norte 0 -- -- 80
2020-02-14 02:00:00 10.9 7 Norte 12 Norte 0 -- -- 84
2020-02-14 01:00:00 10.9 7 Nordeste 10 Nordeste 0 -- -- 85
2020-02-14 00:00:00 11.8 8 Nordeste 10 Nordeste 0 -- -- 80
2020-02-13 23:00:00 12 5 Nordeste 10 Norte 0 -- -- 80
2020-02-13 22:00:00 12.2 3 Nordeste 6 Nordeste 0 -- -- 80
2020-02-13 21:00:00 12.4 4 Nordeste 10 Nordeste 0 -- -- 80
2020-02-13 20:00:00 12.9 8 Nordeste 14 Nordeste 0 -- -- 79
2020-02-13 19:00:00 14.5 9 Norte 22 Norte 0 -- -- 73
2020-02-13 18:00:00 15.9 12 Norte 23 Norte 0 -- -- 66
2020-02-13 17:00:00 15.9 8 Norte 18 Norte 0 -- -- 68
2020-02-13 16:00:00 15.1 10 Norte 19 Norte 0 -- -- 71
2020-02-13 15:00:00 14.5 11 Norte 17 Nordeste 0 -- -- 76
2020-02-13 14:00:00 13.9 9 Norte 20 Nordeste 0 -- -- 75
2020-02-13 13:00:00 13.3 8 Norte 15 Norte 0 -- -- 83
2020-02-13 12:00:00 12.7 6 Norte 12 Norte 0 -- -- 88
2020-02-13 11:00:00 11.8 6 Norte 15 Noroeste 0 -- -- 98
2020-02-13 10:00:00 10.9 9 Noroeste 15 Noroeste 0 -- -- 100
2020-02-13 09:00:00 10.4 5 Noroeste 9 Oeste 0 -- -- 100
2020-02-13 08:00:00 10.3 8 Noroeste 14 Noroeste 0 -- -- 100
2020-02-13 07:00:00 9.8 6 Noroeste 8 Oeste 0 -- -- 99
2020-02-13 06:00:00 10.3 5 Noroeste 9 Noroeste 0 -- -- 99
2020-02-13 05:00:00 10.1 5 Noroeste 11 Noroeste 0 -- -- 99
2020-02-13 04:00:00 9.7 8 Noroeste 13 Noroeste 0 -- -- 99
2020-02-13 03:00:00 9.6 9 Noroeste 15 Oeste 0 -- -- 98
2020-02-13 02:00:00 10.1 7 Noroeste 12 Noroeste 0 -- -- 96
2020-02-13 01:00:00 10.8 7 Noroeste 10 Noroeste 0 -- -- 92
2020-02-13 00:00:00 11.7 3 Oeste 7 Oeste 0 -- -- 86
2020-02-12 23:00:00 12.3 5 Oeste 6 Oeste 0 -- -- 83
2020-02-12 22:00:00 12.4 0 Calma 3 Noroeste 0 -- -- 83
2020-02-12 21:00:00 12.6 4 Noroeste 6 Noroeste 0 -- -- 81
2020-02-12 20:00:00 13.2 0 Calma 6 Noroeste 0 -- -- 80
2020-02-12 19:00:00 13.8 3 Noroeste 12 Noroeste 0 -- -- 77
2020-02-12 18:00:00 14.7 8 Noroeste 14 Noroeste 0 -- -- 73
2020-02-12 17:00:00 15.1 6 Noroeste 16 Noroeste 0 -- -- 73
2020-02-12 16:00:00 15.4 9 Noroeste 15 Noroeste 0 -- -- 70
2020-02-12 15:00:00 15.1 7 Noroeste 16 Noroeste 0 -- -- 74
2020-02-12 14:00:00 14.9 9 Noroeste 17 Noroeste 0 -- -- 76
2020-02-12 13:00:00 14 5 Noroeste 13 Oeste 0 -- -- 79
2020-02-12 12:00:00 12.8 6 Noroeste 15 Noroeste 0 -- -- 86
2020-02-12 11:00:00 11.8 9 Noroeste 17 Noroeste 0 -- -- 95
2020-02-12 10:00:00 10.9 4 Sudoeste 10 Oeste 0 -- -- 100
2020-02-12 09:00:00 10.2 4 Sudoeste 10 Oeste 0 -- -- 100
2020-02-12 08:00:00 10.3 8 Oeste 13 Oeste 0 -- -- 100
2020-02-12 07:00:00 10.3 5 Noroeste 15 Noroeste 0 -- -- 100
2020-02-12 06:00:00 10.5 7 Noroeste 21 Noroeste 0 -- -- 100
2020-02-12 05:00:00 10.6 14 Noroeste 23 Noroeste 0 -- -- 100
2020-02-12 04:00:00 10.3 10 Noroeste 18 Noroeste 0 -- -- 100
2020-02-12 03:00:00 10.4 12 Noroeste 17 Noroeste 0 -- -- 100
2020-02-12 02:00:00 10.5 9 Noroeste 19 Noroeste 0 -- -- 99
2020-02-12 01:00:00 10.6 10 Noroeste 17 Oeste 0 -- -- 99
2020-02-12 00:00:00 10.9 12 Noroeste 21 Oeste 0 -- -- 98
2020-02-11 23:00:00 10.8 11 Noroeste 19 Oeste 0 -- -- 97
2020-02-11 22:00:00 11.2 9 Oeste 19 Oeste 0 -- -- 96
2020-02-11 21:00:00 12.3 9 Noroeste 20 Noroeste 0 -- -- 92
2020-02-11 20:00:00 14.3 13 Noroeste 27 Noroeste 0 -- -- 88
2020-02-11 19:00:00 16.7 8 Oeste 15 Oeste 0 -- -- 75
2020-02-11 18:00:00 18.2 8 Noroeste 18 Noroeste 0 -- -- 70
2020-02-11 17:00:00 18.8 9 Oeste 23 Oeste 0 -- -- 69
2020-02-11 16:00:00 18.6 10 Noroeste 23 Noroeste 0 -- -- 67
2020-02-11 15:00:00 18.3 9 Noroeste 19 Oeste 0 -- -- 72
2020-02-11 14:00:00 17.5 13 Noroeste 18 Noroeste 0 -- -- 75
2020-02-11 13:00:00 16.3 6 Noroeste 15 Noroeste 0 -- -- 79
2020-02-11 12:00:00 13.2 9 Noroeste 15 Noroeste 0 -- -- 99
2020-02-11 11:00:00 10.9 9 Oeste 16 Oeste 0 -- -- 100
2020-02-11 10:00:00 9.8 9 Oeste 16 Noroeste 0 -- -- 100
2020-02-11 09:00:00 8.9 9 Oeste 15 Noroeste 0 -- -- 100
2020-02-11 08:00:00 9.3 5 Oeste 12 Oeste 0 -- -- 99
2020-02-11 07:00:00 10 6 Noroeste 10 Oeste 0 -- -- 98
2020-02-11 06:00:00 10.2 5 Oeste 11 Noroeste 0 -- -- 98
2020-02-11 05:00:00 10.9 6 Oeste 9 Noroeste 0 -- -- 95
2020-02-11 04:00:00 11.6 3 Oeste 6 Noroeste 0 -- -- 93
2020-02-11 03:00:00 12.3 0 Calma 6 Norte 0 -- -- 90
2020-02-11 02:00:00 12.1 3 Norte 8 Noroeste 0 -- -- 92
2020-02-11 01:00:00 12.1 4 Noroeste 11 Norte 0 -- -- 91
2020-02-11 00:00:00 12.6 8 Noroeste 14 Noroeste 0 -- -- 89
2020-02-10 23:00:00 13.5 10 Noroeste 17 Noroeste 0 -- -- 80
2020-02-10 22:00:00 14.3 8 Noroeste 17 Noroeste 0 -- -- 78
2020-02-10 21:00:00 14.4 9 Noroeste 21 Noroeste 0 -- -- 78
2020-02-10 20:00:00 15.1 10 Noroeste 17 Noroeste 0 -- -- 79
2020-02-10 19:00:00 17.6 8 Noroeste 13 Noroeste 0 -- -- 71
2020-02-10 18:00:00 19.6 9 Noroeste 16 Noroeste 0 -- -- 61
2020-02-10 17:00:00 19.8 9 Norte 15 Norte 0 -- -- 58
2020-02-10 16:00:00 19.7 4 Norte 16 Nordeste 0 -- -- 58
2020-02-10 15:00:00 19 7 Norte 17 Norte 0 -- -- 59
2020-02-10 14:00:00 18.4 4 Norte 16 Noroeste 0 -- -- 62
2020-02-10 13:00:00 17.5 3 Norte 9 Noroeste 0 -- -- 67
2020-02-10 12:00:00 16.1 3 Nordeste 5 Oeste 0 -- -- 74
2020-02-10 11:00:00 12.3 5 Oeste 9 Noroeste 0 -- -- 93
2020-02-10 10:00:00 10 8 Noroeste 11 Noroeste 0 -- -- 96
2020-02-10 09:00:00 8.2 6 Oeste 12 Noroeste 0 -- -- 98
2020-02-10 08:00:00 10.9 3 Nordeste 4 Este 0 -- -- 91
2020-02-10 07:00:00 10 0 Calma 3 Sudoeste 0 -- -- 99
2020-02-10 06:00:00 9.6 3 Sudoeste 8 Oeste 0 -- -- 98
2020-02-10 05:00:00 9.7 3 Oeste 8 Noroeste 0 -- -- 98
2020-02-10 04:00:00 10.1 5 Oeste 10 Noroeste 0 -- -- 97
2020-02-10 03:00:00 11 4 Noroeste 5 Noroeste 0 -- -- 94
2020-02-10 02:00:00 11.3 4 Norte 5 Norte 0 -- -- 94
2020-02-10 01:00:00 11.2 5 Noroeste 7 Noroeste 0 -- -- 94
2020-02-10 00:00:00 11.8 4 Norte 9 Norte 0 -- -- 93
2020-02-09 23:00:00 11.7 6 Noroeste 11 Noroeste 0 -- -- 94
2020-02-09 22:00:00 11.8 7 Noroeste 10 Noroeste 0 -- -- 91
2020-02-09 21:00:00 12.8 6 Noroeste 12 Noroeste 0 -- -- 88
2020-02-09 20:00:00 13.3 6 Noroeste 7 Noroeste 0 -- -- 88
2020-02-09 19:00:00 14.5 3 Oeste 5 Oeste 0 -- -- 82
2020-02-09 18:00:00 15.4 4 Oeste 12 Oeste 0 -- -- 78
2020-02-09 17:00:00 15.8 5 Sudoeste 14 Sur 0 -- -- 80
2020-02-09 16:00:00 15.6 8 Sur 14 Sur 0 -- -- 83
2020-02-09 15:00:00 14 2 Sudeste 7 Noroeste 0 -- -- 90
2020-02-09 14:00:00 12.6 6 Noroeste 13 Noroeste 0 -- -- 93
2020-02-09 13:00:00 12.2 6 Noroeste 13 Noroeste 0 -- -- 96
2020-02-09 12:00:00 12 8 Noroeste 11 Noroeste 0 -- -- 96
2020-02-09 11:00:00 11.5 3 Noroeste 9 Noroeste 0 -- -- 100
2020-02-09 10:00:00 10.1 5 Noroeste 20 Noroeste 0 -- -- 100
2020-02-09 09:00:00 10.1 12 Noroeste 19 Oeste 0 -- -- 100
2020-02-09 08:00:00 10.7 4 Noroeste 14 Noroeste 0 -- -- 100
2020-02-09 07:00:00 11 8 Noroeste 14 Noroeste 0 -- -- 100
2020-02-09 06:00:00 11.1 8 Noroeste 12 Noroeste 0.2 -- -- 99
2020-02-09 05:00:00 11.4 5 Noroeste 10 Noroeste 0 -- -- 99
2020-02-09 04:00:00 11.3 4 Noroeste 14 Noroeste 0.2 -- -- 97
2020-02-09 03:00:00 12 6 Noroeste 10 Noroeste 0 -- -- 98
2020-02-09 02:00:00 12.6 5 Noroeste 9 Noroeste 0 -- -- 98
2020-02-09 01:00:00 12.6 0 Calma 6 Oeste 0 -- -- 98
2020-02-09 00:00:00 12.7 5 Sudoeste 10 Oeste 0 -- -- 98
2020-02-08 23:00:00 12.7 8 Sur 15 Sur 0 -- -- 98
2020-02-08 22:00:00 12.9 13 Sur 22 Sur 0 -- -- 98
2020-02-08 21:00:00 13.2 17 Sur 24 Sur 0.2 -- -- 97
2020-02-08 20:00:00 13.6 16 Sur 22 Sur 0 -- -- 94
2020-02-08 19:00:00 14.1 13 Sur 24 Sur 0 -- -- 91
2020-02-08 18:00:00 15.2 12 Sur 21 Sur 0 -- -- 84
2020-02-08 17:00:00 16 11 Sur 17 Sur 0 -- -- 80
2020-02-08 16:00:00 15 5 Sur 14 Oeste 0.2 -- -- 89
2020-02-08 15:00:00 15 4 Este 10 Este 0 -- -- 83
2020-02-08 14:00:00 14.9 6 Este 10 Sudeste 0 -- -- 84
2020-02-08 13:00:00 14.6 3 Sudoeste 9 Sudoeste 0 -- -- 84
2020-02-08 12:00:00 13.1 3 Sudeste 8 Sur 0 -- -- 93
2020-02-08 11:00:00 11.3 4 Noroeste 13 Noroeste 0 -- -- 100
2020-02-08 10:00:00 10.5 7 Oeste 12 Noroeste 0 -- -- 100
2020-02-08 09:00:00 10.4 6 Sudoeste 9 Sur 0 -- -- 100
2020-02-08 08:00:00 10.5 4 Noroeste 15 Noroeste 0 -- -- 100
2020-02-08 07:00:00 10.8 12 Noroeste 18 Noroeste 0 -- -- 100
2020-02-08 06:00:00 10.9 12 Noroeste 19 Noroeste 0 -- -- 100
2020-02-08 05:00:00 10.9 10 Noroeste 16 Noroeste 0 -- -- 100
2020-02-08 04:00:00 11 6 Noroeste 10 Noroeste 0 -- -- 99
2020-02-08 03:00:00 11.3 5 Noroeste 13 Noroeste 0 -- -- 99
2020-02-08 02:00:00 11.8 8 Noroeste 16 Noroeste 0 -- -- 99
2020-02-08 01:00:00 11.5 10 Noroeste 17 Oeste 0 -- -- 98
2020-02-08 00:00:00 12.3 11 Oeste 16 Oeste 0 -- -- 95
2020-02-07 23:00:00 12.9 6 Sudoeste 11 Sur 0 -- -- 91
2020-02-07 22:00:00 13.3 8 Sur 15 Sur 0 -- -- 90
2020-02-07 21:00:00 13.6 12 Sur 19 Sur 0 -- -- 91
2020-02-07 20:00:00 14 13 Sur 17 Sur 0 -- -- 91
2020-02-07 19:00:00 14.7 13 Sur 17 Sudeste 0 -- -- 85
2020-02-07 18:00:00 16.4 6 Sudoeste 15 Sur 0 -- -- 72
2020-02-07 17:00:00 17.1 9 Sudoeste 14 Sudoeste 0 -- -- 69
2020-02-07 16:00:00 16 9 Sur 18 Sudeste 0 -- -- 74
2020-02-07 15:00:00 15.8 9 Sudeste 18 Este 0 -- -- 76
2020-02-07 14:00:00 15.8 11 Sur 19 Sudeste 0 -- -- 74
2020-02-07 13:00:00 14.9 9 Sudeste 21 Sur 0 -- -- 79
2020-02-07 12:00:00 14.2 8 Sudeste 22 Sur 0 -- -- 78
2020-02-07 11:00:00 12 12 Sudeste 22 Sur 0 -- -- 83
2020-02-07 10:00:00 11.5 9 Sudeste 19 Sudeste 0 -- -- 83
2020-02-07 09:00:00 11.1 9 Sudeste 16 Sudeste 0 -- -- 84
2020-02-07 08:00:00 10.6 10 Este 17 Este 0 -- -- 88
2020-02-07 07:00:00 9.9 11 Este 16 Sudeste 0 -- -- 93
2020-02-07 06:00:00 10.7 10 Sudeste 16 Sudeste 0 -- -- 88
2020-02-07 05:00:00 11 10 Sudeste 19 Sudeste 0 -- -- 84
2020-02-07 04:00:00 10.7 6 Sur 12 Sur 0 -- -- 86
2020-02-07 03:00:00 10.4 4 Sur 9 Sur 0 -- -- 90
2020-02-07 02:00:00 10.9 4 Sur 8 Sur 0 -- -- 87
2020-02-07 01:00:00 11.4 4 Sur 14 Sur 0 -- -- 86
2020-02-07 00:00:00 11.6 9 Sur 21 Sudeste 0 -- -- 86
2020-02-06 23:00:00 12.4 10 Sur 22 Sudeste 0 -- -- 84
2020-02-06 22:00:00 13 14 Sur 23 Sur 0 -- -- 80
2020-02-06 21:00:00 13.2 10 Sur 17 Sur 0 -- -- 81
2020-02-06 20:00:00 14 8 Sur 23 Sur 0 -- -- 76
2020-02-06 19:00:00 15.1 11 Sur 20 Sur 0 -- -- 72
2020-02-06 18:00:00 16.4 13 Sur 24 Sur 0 -- -- 68
2020-02-06 17:00:00 16.7 11 Sudeste 28 Sur 0 -- -- 65
2020-02-06 16:00:00 16.9 10 Sudeste 23 Sudeste 0 -- -- 65
2020-02-06 15:00:00 16.5 12 Sudeste 31 Sudeste 0 -- -- 67
2020-02-06 14:00:00 15.7 17 Sudeste 40 Sudeste 0 -- -- 65
2020-02-06 13:00:00 15.8 14 Sudeste 31 Sudeste 0 -- -- 65
2020-02-06 12:00:00 14.4 11 Sudeste 31 Sudeste 0 -- -- 72
2020-02-06 11:00:00 12.3 19 Sudeste 32 Este 0 -- -- 79
2020-02-06 10:00:00 10.6 12 Este 22 Sudeste 0 -- -- 86
2020-02-06 09:00:00 8.7 9 Este 16 Sudeste 0 -- -- 92
2020-02-06 08:00:00 8.2 6 Este 13 Este 0 -- -- 93
2020-02-06 07:00:00 8.6 6 Este 12 Este 0 -- -- 93
2020-02-06 06:00:00 9.1 8 Este 14 Sudeste 0 -- -- 93
2020-02-06 05:00:00 9.6 6 Este 16 Sudeste 0 -- -- 92
2020-02-06 04:00:00 10.6 9 Este 17 Sudeste 0 -- -- 88
2020-02-06 03:00:00 11 4 Sudeste 20 Sudeste 0 -- -- 86
2020-02-06 02:00:00 11.8 17 Sudeste 27 Sudeste 0 -- -- 82
2020-02-06 01:00:00 12.1 6 Sudeste 14 Sudeste 0 -- -- 93
2020-02-06 00:00:00 12.2 6 Sudeste 16 Sur 0 -- -- 90
2020-02-05 23:00:00 12.8 13 Sur 18 Sur 0 -- -- 88
2020-02-05 22:00:00 13.4 13 Sur 17 Sur 0 -- -- 86
2020-02-05 21:00:00 12.9 6 Sur 11 Oeste 0 -- -- 88
2020-02-05 20:00:00 13.7 7 Sudoeste 12 Sudoeste 0 -- -- 84
2020-02-05 19:00:00 15.2 8 Sudoeste 14 Sudoeste 0 -- -- 78
2020-02-05 18:00:00 16.9 10 Sudoeste 18 Sur 0 -- -- 71
2020-02-05 17:00:00 17.7 11 Sudoeste 24 Sur 0 -- -- 68
2020-02-05 16:00:00 18.1 16 Sudoeste 24 Sudoeste 0 -- -- 63
2020-02-05 15:00:00 18.7 13 Sur 26 Sudoeste 0 -- -- 60
2020-02-05 14:00:00 18.5 15 Sur 28 Sur 0 -- -- 59
2020-02-05 13:00:00 17.4 19 Sur 32 Sur 0 -- -- 61
2020-02-05 12:00:00 18.4 13 Sudeste 25 Este 0 -- -- 52
2020-02-05 11:00:00 16.8 10 Este 17 Este 0 -- -- 55
2020-02-05 10:00:00 16.2 6 Este 13 Este 0 -- -- 55
2020-02-05 09:00:00 14 8 Este 12 Este 0 -- -- 57
2020-02-05 08:00:00 13.3 8 Este 9 Este 0 -- -- 49
2020-02-05 07:00:00 13.4 6 Este 12 Este 0 -- -- 47
2020-02-05 06:00:00 13.5 7 Este 9 Este 0 -- -- 48
2020-02-05 05:00:00 14 5 Este 9 Este 0 -- -- 48
2020-02-05 04:00:00 14.1 5 Este 7 Este 0 -- -- 54
2020-02-05 03:00:00 14.3 3 Nordeste 6 Nordeste 0 -- -- 58
2020-02-05 02:00:00 12.1 4 Norte 10 Noroeste 0 -- -- 80
2020-02-05 01:00:00 12.4 9 Noroeste 12 Noroeste 0 -- -- 83
2020-02-05 00:00:00 13.8 8 Noroeste 12 Noroeste 0 -- -- 79
2020-02-04 23:00:00 14.7 8 Noroeste 11 Noroeste 0 -- -- 76
2020-02-04 22:00:00 15.1 8 Noroeste 11 Noroeste 0 -- -- 71
2020-02-04 21:00:00 15.6 4 Noroeste 17 Noroeste 0 -- -- 64
2020-02-04 20:00:00 17.2 10 Noroeste 17 Noroeste 0 -- -- 61
2020-02-04 19:00:00 19 12 Noroeste 21 Noroeste 0 -- -- 59
2020-02-04 18:00:00 21.8 14 Noroeste 26 Noroeste 0 -- -- 52
2020-02-04 12:00:00 17.3 7 Noroeste 12 Noroeste 0 -- -- 74
2020-02-04 11:00:00 14.5 6 Noroeste 10 Noroeste 0 -- -- 82
2020-02-04 10:00:00 12.4 7 Noroeste 10 Noroeste 0 -- -- 84
2020-02-04 09:00:00 11.3 9 Noroeste 11 Noroeste 0 -- -- 90
2020-02-04 08:00:00 12.1 6 Noroeste 12 Noroeste 0 -- -- 85
2020-02-04 07:00:00 13.5 4 Norte 6 Norte 0 -- -- 84
2020-02-04 06:00:00 13.7 5 Norte 9 Noroeste 0 -- -- 84
2020-02-04 05:00:00 12.9 8 Noroeste 11 Noroeste 0 -- -- 86
2020-02-04 04:00:00 13.1 10 Noroeste 17 Noroeste 0 -- -- 84
2020-02-04 03:00:00 13.5 10 Noroeste 14 Noroeste 0 -- -- 81
2020-02-04 02:00:00 14.5 6 Noroeste 9 Noroeste 0 -- -- 76
2020-02-04 01:00:00 14.6 7 Noroeste 10 Noroeste 0 -- -- 76
2020-02-04 00:00:00 14.9 3 Norte 4 Nordeste 0 -- -- 74
2020-02-03 23:00:00 15.6 0 Calma 6 Sur 0 -- -- 70
2020-02-03 22:00:00 16.1 5 Sudoeste 7 Sudoeste 0 -- -- 69
2020-02-03 21:00:00 16.6 4 Sudoeste 7 Sudoeste 0 -- -- 68
2020-02-03 20:00:00 17.1 2 Sudoeste 10 Sudoeste 0 -- -- 67
2020-02-03 19:00:00 19.5 5 Sur 10 Sudeste 0 -- -- 61
2020-02-03 18:00:00 21.8 3 Sur 14 Sudoeste 0 -- -- 53
2020-02-03 17:00:00 22 8 Sur 15 Sur 0 -- -- 51
2020-02-03 16:00:00 21.9 7 Sur 20 Sudeste 0 -- -- 54
2020-02-03 15:00:00 21.4 12 Sur 31 Sur 0 -- -- 55
2020-02-03 14:00:00 20.9 17 Sur 27 Sudeste 0 -- -- 53
2020-02-03 13:00:00 20.2 17 Sur 27 Sur 0 -- -- 56
2020-02-03 12:00:00 19.3 10 Sudeste 19 Sudeste 0 -- -- 62
2020-02-03 11:00:00 17.4 10 Este 17 Este 0 -- -- 67
2020-02-03 10:00:00 16.1 9 Este 13 Este 0 -- -- 70
2020-02-03 09:00:00 14.8 5 Sudeste 10 Este 0 -- -- 73
2020-02-03 08:00:00 14.7 5 Este 15 Este 0 -- -- 73
2020-02-03 07:00:00 14.9 6 Este 8 Este 0 -- -- 74
2020-02-03 06:00:00 15.7 5 Este 7 Sudeste 0 -- -- 71
2020-02-03 05:00:00 15.5 4 Este 9 Este 0 -- -- 72
2020-02-03 04:00:00 15.3 8 Este 13 Este 0 -- -- 75
2020-02-03 03:00:00 14.9 8 Este 11 Este 0 -- -- 77
2020-02-03 02:00:00 15.5 9 Este 12 Este 0 -- -- 75
2020-02-03 01:00:00 16.2 8 Este 10 Este 0 -- -- 73
2020-02-03 00:00:00 17.2 5 Sudeste 12 Este 0 -- -- 67
2020-02-02 23:00:00 16.9 4 Este 7 Este 0 -- -- 72
2020-02-02 22:00:00 17.8 4 Nordeste 7 Nordeste 0 -- -- 72
2020-02-02 21:00:00 18.4 0 Calma 6 Noroeste 0 -- -- 70
2020-02-02 20:00:00 19.2 0 Calma 3 Sur 0 -- -- 68
2020-02-02 19:00:00 21 0 Calma 5 Nordeste 0 -- -- 64
2020-02-02 18:00:00 22.7 2 Este 8 Este 0 -- -- 57
2020-02-02 17:00:00 22.8 4 Este 9 Este 0 -- -- 56
2020-02-02 16:00:00 22.7 4 Sur 14 Sur 0 -- -- 58
2020-02-02 15:00:00 22.3 4 Sudeste 11 Este 0 -- -- 60
2020-02-02 14:00:00 20.8 5 Este 14 Este 0 -- -- 65
2020-02-02 13:00:00 19.4 6 Este 14 Este 0 -- -- 69
2020-02-02 12:00:00 18.1 6 Este 12 Nordeste 0 -- -- 72
2020-02-02 11:00:00 16.9 5 Nordeste 9 Nordeste 0 -- -- 78
2020-02-02 10:00:00 15.9 2 Nordeste 6 Este 0 -- -- 80
2020-02-02 09:00:00 14.1 5 Este 6 Este 0 -- -- 86
2020-02-02 08:00:00 12.8 3 Nordeste 5 Norte 0 -- -- 94
2020-02-02 07:00:00 12.3 3 Nordeste 6 Este 0 -- -- 97
2020-02-02 06:00:00 11.7 0 Calma 6 Norte 0 -- -- 99
2020-02-02 05:00:00 11.9 5 Nordeste 9 Este 0 -- -- 98
2020-02-02 04:00:00 12.4 8 Este 10 Este 0 -- -- 98
2020-02-02 03:00:00 12.2 5 Este 7 Este 0 -- -- 97
2020-02-02 02:00:00 12.8 6 Este 8 Este 0 -- -- 95
2020-02-02 01:00:00 13.4 5 Este 9 Este 0 -- -- 94
2020-02-02 00:00:00 14.2 6 Nordeste 9 Nordeste 0 -- -- 90
2020-02-01 23:00:00 14 0 Calma 6 Noroeste 0 -- -- 90
2020-02-01 22:00:00 14.5 6 Norte 11 Norte 0 -- -- 88
2020-02-01 21:00:00 14.5 6 Noroeste 8 Noroeste 0 -- -- 91
2020-02-01 20:00:00 15.1 2 Oeste 7 Oeste 0 -- -- 90
2020-02-01 19:00:00 16.3 6 Oeste 8 Oeste 0 -- -- 84
2020-02-01 18:00:00 17.9 4 Sur 10 Sur 0 -- -- 79
2020-02-01 17:00:00 17.2 3 Sudeste 9 Este 0 -- -- 82
2020-02-01 16:00:00 17.2 7 Este 12 Este 0 -- -- 82
2020-02-01 15:00:00 17.1 5 Este 8 Este 0 -- -- 83
2020-02-01 14:00:00 16.8 3 Norte 9 Oeste 0 -- -- 82
2020-02-01 13:00:00 15.5 5 Norte 9 Norte 0 -- -- 91
2020-02-01 12:00:00 14.9 3 Nordeste 8 Este 0 -- -- 100
2020-02-01 11:00:00 13.5 2 Nordeste 8 Norte 0 -- -- 100
2020-02-01 10:00:00 13.2 4 Noroeste 8 Oeste 0 -- -- 100
2020-02-01 09:00:00 12.9 4 Sudoeste 6 Sudoeste 0 -- -- 100
2020-02-01 08:00:00 12.8 3 Nordeste 11 Este 0 -- -- 100
2020-02-01 07:00:00 13.1 4 Este 8 Noroeste 0 -- -- 100
2020-02-01 06:00:00 13 3 Oeste 6 Sudoeste 0 -- -- 100
2020-02-01 05:00:00 13 4 Sudoeste 5 Oeste 0 -- -- 100
2020-02-01 04:00:00 13.1 0 Calma 2 Sudeste 0.2 -- -- 100
2020-02-01 03:00:00 13.1 0 Calma 6 Sudeste 0 -- -- 100
2020-02-01 02:00:00 13.2 4 Sudeste 6 Sur 0 -- -- 100
2020-02-01 01:00:00 13.3 4 Sur 8 Sur 0 -- -- 100
2020-02-01 00:00:00 13.2 6 Sur 14 Sur 0 -- -- 100
2020-01-31 23:00:00 13.2 10 Sudoeste 17 Sudoeste 0 -- -- 100
2020-01-31 22:00:00 13.1 12 Sur 17 Sur 0 -- -- 100
2020-01-31 21:00:00 13.1 8 Sudoeste 17 Sur 0 -- -- 99
2020-01-31 20:00:00 13.2 11 Sudoeste 19 Sur 0 -- -- 98
2020-01-31 19:00:00 13.8 11 Sudoeste 19 Sur 0 -- -- 96
2020-01-31 18:00:00 14.4 11 Sur 15 Sur 0 -- -- 93
2020-01-31 17:00:00 14.6 13 Sur 17 Sur 0 -- -- 93
2020-01-31 16:00:00 14.8 10 Sur 15 Sur 0 -- -- 91
2020-01-31 15:00:00 14.7 8 Sur 15 Sur 0 -- -- 91
2020-01-31 14:00:00 14.6 10 Sudoeste 18 Sudoeste 0 -- -- 91
2020-01-31 13:00:00 14.6 8 Sur 16 Sur 0 -- -- 89
2020-01-31 12:00:00 14.3 9 Sur 17 Sur 0 -- -- 89
2020-01-31 11:00:00 13.1 8 Sur 15 Sur 0 -- -- 94
2020-01-31 10:00:00 12.1 3 Sur 12 Sudeste 0 -- -- 100
2020-01-31 09:00:00 11.6 2 Sudeste 5 Este 0 -- -- 100
2020-01-31 08:00:00 11.6 2 Este 8 Sudeste 0 -- -- 100
2020-01-31 07:00:00 11.7 6 Sur 12 Sur 0 -- -- 100
2020-01-31 06:00:00 11.6 5 Sur 10 Sur 0 -- -- 100
2020-01-31 05:00:00 11.6 6 Sudeste 10 Sudeste 0 -- -- 100
2020-01-31 04:00:00 11.6 6 Sur 11 Sur 0 -- -- 99
2020-01-31 03:00:00 11.4 8 Este 12 Este 0 -- -- 99
2020-01-31 02:00:00 12 4 Sur 7 Sur 0 -- -- 99
2020-01-31 01:00:00 12.1 3 Sudeste 12 Sur 0 -- -- 99
2020-01-31 00:00:00 12 6 Sur 14 Sur 0 -- -- 99
2020-01-30 23:00:00 12 12 Sur 19 Sur 0 -- -- 98
2020-01-30 22:00:00 12 12 Sur 16 Sur 0 -- -- 97
2020-01-30 21:00:00 12.1 12 Sur 19 Sur 0 -- -- 96
2020-01-30 20:00:00 12.3 12 Sur 23 Sudoeste 0 -- -- 95
2020-01-30 19:00:00 12.8 13 Sur 21 Sur 0 -- -- 91
2020-01-30 18:00:00 13.9 13 Sur 21 Sur 0 -- -- 85
2020-01-30 17:00:00 14.8 13 Sur 20 Sur 0 -- -- 81
2020-01-30 16:00:00 15 11 Sur 23 Sur 0 -- -- 80
2020-01-30 15:00:00 15 15 Sudoeste 24 Sudoeste 0 -- -- 79
2020-01-30 14:00:00 14.2 13 Sur 21 Sur 0 -- -- 84
2020-01-30 13:00:00 13.7 10 Sur 16 Sudoeste 0 -- -- 86
2020-01-30 12:00:00 12.8 4 Sudeste 9 Este 0 -- -- 90
2020-01-30 11:00:00 11.3 4 Este 8 Sur 0 -- -- 98
2020-01-30 10:00:00 10.5 2 Este 5 Sudeste 0 -- -- 100
2020-01-30 09:00:00 9.5 3 Sur 5 Sur 0 -- -- 100
2020-01-30 08:00:00 9.4 0 Calma 4 Sudeste 0 -- -- 100
2020-01-30 07:00:00 9.9 0 Calma 5 Sur 0 -- -- 100
2020-01-30 06:00:00 9.5 2 Sur 5 Sur 0 -- -- 100
2020-01-30 05:00:00 8.3 4 Sudeste 6 Este 0 -- -- 100
2020-01-30 04:00:00 8.7 4 Este 5 Este 0 -- -- 100
2020-01-30 03:00:00 8.8 2 Este 4 Este 0 -- -- 100
2020-01-30 02:00:00 9.2 0 Calma 4 Norte 0 -- -- 99
2020-01-30 01:00:00 10.3 0 Calma 4 Oeste 0 -- -- 99
2020-01-30 00:00:00 10.7 0 Calma 2 Sudeste 0 -- -- 97
2020-01-29 23:00:00 11.1 0 Calma 10 Sudoeste 0 -- -- 96
2020-01-29 22:00:00 11.5 9 Sudoeste 15 Sudoeste 0 -- -- 95
2020-01-29 21:00:00 12.1 10 Sudoeste 16 Sudoeste 0 -- -- 91
2020-01-29 20:00:00 12.5 12 Sur 17 Sur 0 -- -- 88
2020-01-29 19:00:00 13.6 13 Sudoeste 17 Sudoeste 0 -- -- 83
2020-01-29 18:00:00 15.1 11 Sudoeste 18 Sur 0 -- -- 78
2020-01-29 17:00:00 15.9 9 Sur 17 Sur 0 -- -- 74
2020-01-29 16:00:00 16 9 Sudoeste 16 Sur 0 -- -- 74
2020-01-29 15:00:00 16 8 Sur 16 Sudoeste 0 -- -- 74
2020-01-29 14:00:00 15.5 7 Sur 14 Sur 0 -- -- 74
2020-01-29 13:00:00 14.9 5 Sudoeste 10 Sudoeste 0 -- -- 79
2020-01-29 12:00:00 14 2 Sudeste 5 Sur 0 -- -- 88
2020-01-29 11:00:00 12.8 2 Este 5 Nordeste 0 -- -- 99
2020-01-29 10:00:00 11.6 2 Norte 8 Este 0 -- -- 100
2020-01-29 09:00:00 10.8 4 Este 6 Este 0 -- -- 100
2020-01-29 08:00:00 11.1 2 Norte 10 Este 0 -- -- 100
2020-01-29 07:00:00 11.6 8 Este 11 Este 0 -- -- 100
2020-01-29 06:00:00 11.6 6 Nordeste 9 Nordeste 0 -- -- 100
2020-01-29 05:00:00 11.7 5 Nordeste 8 Nordeste 0 -- -- 100
2020-01-29 04:00:00 11.8 4 Este 5 Este 0 -- -- 100
2020-01-29 03:00:00 11.7 3 Este 5 Sudeste 0 -- -- 100
2020-01-29 02:00:00 11.7 0 Calma 4 Norte 0 -- -- 100
2020-01-29 01:00:00 12 0 Calma 8 Sudoeste 0 -- -- 100
2020-01-29 00:00:00 12.3 6 Sudoeste 11 Sudoeste 0 -- -- 99
2020-01-28 23:00:00 12.7 5 Sur 10 Sur 0 -- -- 98
2020-01-28 22:00:00 12.7 3 Sur 7 Sur 0 -- -- 98
2020-01-28 21:00:00 12.9 6 Sur 17 Sur 0 -- -- 98
2020-01-28 20:00:00 13.3 12 Sur 15 Sur 0 -- -- 95
2020-01-28 19:00:00 13.6 9 Sur 12 Sur 0 -- -- 93
2020-01-28 18:00:00 14.3 2 Sudoeste 7 Sudoeste 0 -- -- 86
2020-01-28 17:00:00 14.4 5 Sudoeste 9 Oeste 0 -- -- 84
2020-01-28 16:00:00 14.6 4 Oeste 16 Oeste 0 -- -- 82
2020-01-28 15:00:00 14.5 11 Oeste 15 Oeste 0 -- -- 82
2020-01-28 14:00:00 14.3 5 Sur 15 Oeste 0 -- -- 84
2020-01-28 13:00:00 13.9 8 Sur 14 Sur 0 -- -- 89
2020-01-28 12:00:00 12.8 4 Sur 8 Sudoeste 0 -- -- 92
2020-01-28 11:00:00 12.3 5 Sudoeste 8 Sur 0 -- -- 95
2020-01-28 10:00:00 11.6 4 Sudoeste 8 Sudoeste 0 -- -- 96
2020-01-28 09:00:00 11 5 Sudoeste 10 Sur 0 -- -- 98
2020-01-28 08:00:00 10.6 3 Este 5 Sudoeste 0 -- -- 98
2020-01-28 07:00:00 10.9 5 Sudoeste 9 Sur 0 -- -- 97
2020-01-28 06:00:00 11 5 Sur 12 Sur 0 -- -- 95
2020-01-28 05:00:00 11.3 5 Sur 9 Sur 0 -- -- 94
2020-01-28 04:00:00 11.2 3 Sudoeste 5 Sudoeste 0 -- -- 94
2020-01-28 03:00:00 11.2 4 Sudoeste 9 Sur 0 -- -- 93
2020-01-28 02:00:00 10.8 4 Sudoeste 6 Sudoeste 0 -- -- 96
2020-01-28 01:00:00 10.2 3 Noroeste 4 Noroeste 0 -- -- 98
2020-01-28 00:00:00 10.6 0 Calma 3 Noroeste 0 -- -- 98
2020-01-27 23:00:00 11 3 Noroeste 9 Oeste 0 -- -- 95
2020-01-27 22:00:00 11.2 5 Oeste 20 Sur 0 -- -- 98
2020-01-27 21:00:00 11.4 15 Sur 24 Sudeste 0 -- -- 100
2020-01-27 20:00:00 11.5 16 Sur 23 Sur 0 -- -- 99
2020-01-27 19:00:00 12.2 12 Sur 22 Sur 0 -- -- 95
2020-01-27 18:00:00 12.9 17 Sur 24 Sur 0 -- -- 89
2020-01-27 17:00:00 12.9 17 Sur 24 Sur 0 -- -- 88
2020-01-27 16:00:00 13.1 15 Sur 22 Sur 0 -- -- 89
2020-01-27 15:00:00 11.7 8 Sur 21 Sur 0 -- -- 95
2020-01-27 14:00:00 11.8 15 Sur 22 Sur 0 -- -- 94
2020-01-27 13:00:00 11.1 11 Sur 22 Sudeste 0 -- -- 96
2020-01-27 12:00:00 10.5 13 Sur 21 Sudeste 0 -- -- 100
2020-01-27 11:00:00 9.2 4 Sudeste 13 Sur 0 -- -- 100
2020-01-27 10:00:00 8.7 6 Sudeste 14 Este 0.2 -- -- 100
2020-01-27 09:00:00 8.5 3 Este 10 Este 0 -- -- 100
2020-01-27 08:00:00 7.9 6 Este 10 Este 0 -- -- 100
2020-01-27 07:00:00 7.8 4 Este 9 Este 0 -- -- 100
2020-01-27 06:00:00 7.8 3 Este 5 Este 0 -- -- 100
2020-01-27 05:00:00 7.6 3 Este 7 Este 0 -- -- 100
2020-01-27 04:00:00 8.4 5 Este 6 Este 0 -- -- 99
2020-01-27 03:00:00 9.3 4 Este 4 Este 0 -- -- 97
2020-01-27 02:00:00 9.8 0 Calma 5 Sudoeste 0 -- -- 96
2020-01-27 01:00:00 9.9 3 Oeste 4 Oeste 0 -- -- 96
2020-01-27 00:00:00 10.6 0 Calma 3 Este 0 -- -- 96
2020-01-26 23:00:00 11.2 0 Calma 7 Sudoeste 0 -- -- 94
2020-01-26 22:00:00 11.3 5 Sudoeste 9 Sur 0 -- -- 93
2020-01-26 21:00:00 11.4 8 Sur 10 Sur 0 -- -- 91
2020-01-26 20:00:00 11.6 8 Sur 13 Sur 0 -- -- 90
2020-01-26 19:00:00 11.9 9 Sur 15 Sur 0 -- -- 87
2020-01-26 18:00:00 12.6 13 Sudoeste 18 Sudoeste 0 -- -- 84
2020-01-26 17:00:00 13.7 5 Noroeste 11 Oeste 0 -- -- 69
2020-01-26 16:00:00 13.9 8 Noroeste 17 Noroeste 0 -- -- 68
2020-01-26 15:00:00 13.8 7 Noroeste 15 Noroeste 0 -- -- 70
2020-01-26 14:00:00 12.7 9 Noroeste 16 Noroeste 0 -- -- 81
2020-01-26 13:00:00 10.6 6 Noroeste 13 Noroeste 0 -- -- 100
2020-01-26 12:00:00 8.9 9 Noroeste 13 Oeste 0 -- -- 100
2020-01-26 11:00:00 7.3 4 Noroeste 11 Noroeste 0 -- -- 100
2020-01-26 10:00:00 5.6 7 Oeste 12 Oeste 0 -- -- 100
2020-01-26 09:00:00 4.8 3 Oeste 8 Noroeste 0.2 -- -- 100
2020-01-26 08:00:00 5.5 6 Oeste 14 Noroeste 0 -- -- 100
2020-01-26 07:00:00 6.1 8 Noroeste 16 Noroeste 0 -- -- 100
2020-01-26 06:00:00 6.4 9 Noroeste 19 Noroeste 0 -- -- 100
2020-01-26 05:00:00 6.4 12 Noroeste 15 Noroeste 0 -- -- 100
2020-01-26 04:00:00 6.8 9 Noroeste 15 Oeste 0 -- -- 100
2020-01-26 03:00:00 6.9 8 Noroeste 15 Noroeste 0 -- -- 100
2020-01-26 02:00:00 7.2 8 Noroeste 14 Noroeste 0 -- -- 100
2020-01-26 01:00:00 7.6 8 Noroeste 20 Noroeste 0.2 -- -- 100
2020-01-26 00:00:00 7.9 9 Noroeste 15 Noroeste 0 -- -- 100
2020-01-25 23:00:00 8.8 10 Noroeste 15 Noroeste 0 -- -- 99
2020-01-25 22:00:00 9.3 6 Noroeste 11 Oeste 0 -- -- 98
2020-01-25 21:00:00 9.9 5 Oeste 9 Oeste 0 -- -- 97
2020-01-25 20:00:00 10.1 0 Calma 8 Oeste 4.4 -- -- 95
2020-01-25 19:00:00 10.5 5 Oeste 10 Oeste 2 -- -- 94
2020-01-25 18:00:00 11.3 8 Nordeste 14 Norte 3.8 -- -- 93
2020-01-25 17:00:00 12.5 0 Calma 8 Norte 0 -- -- 80
2020-01-25 16:00:00 12.7 7 Sur 12 Sudoeste 0 -- -- 83
2020-01-25 15:00:00 12.3 2 Oeste 9 Sur 0 -- -- 80
2020-01-25 14:00:00 12.2 3 Sudoeste 13 Sudeste 0 -- -- 90
2020-01-25 13:00:00 11 9 Este 14 Este 0 -- -- 98
2020-01-25 12:00:00 10.1 7 Este 15 Este 0 -- -- 100
2020-01-25 11:00:00 9.5 9 Este 16 Este 0.2 -- -- 100
2020-01-25 10:00:00 8.9 6 Este 14 Este 0.4 -- -- 100
2020-01-25 09:00:00 8.7 8 Este 15 Este 1.2 -- -- 100
2020-01-25 08:00:00 8.5 8 Este 20 Sudeste 1.8 -- -- 100
2020-01-25 07:00:00 8.1 9 Este 15 Este 1 -- -- 100
2020-01-25 06:00:00 7.9 6 Este 18 Este 0 -- -- 100
2020-01-25 05:00:00 8.3 9 Este 20 Sudeste 0 -- -- 100
2020-01-25 04:00:00 8.6 13 Sudeste 20 Sudeste 0 -- -- 100
2020-01-25 03:00:00 8.9 12 Sudeste 21 Sudeste 0 -- -- 100
2020-01-25 02:00:00 8.9 12 Sudeste 22 Sudeste 0 -- -- 100
2020-01-25 01:00:00 9.2 14 Sudeste 24 Sur 0 -- -- 100
2020-01-25 00:00:00 9.7 14 Sur 24 Sur 0 -- -- 100
2020-01-24 23:00:00 9.5 15 Sur 24 Sur 0 -- -- 100
2020-01-24 22:00:00 9.4 17 Sur 26 Sur 0.2 -- -- 100
2020-01-24 21:00:00 9.4 15 Sur 26 Sudeste 0.4 -- -- 100
2020-01-24 20:00:00 9.4 16 Sur 28 Sur 4.8 -- -- 100
2020-01-24 19:00:00 9.9 12 Sudeste 31 Este 3.2 -- -- 100
2020-01-24 18:00:00 10 17 Sudeste 32 Este 1.6 -- -- 99
2020-01-24 17:00:00 10 12 Sudeste 40 Sudeste 2.2 -- -- 98
2020-01-24 16:00:00 10.5 14 Sudeste 32 Sudeste 3 -- -- 100
2020-01-24 15:00:00 10.6 15 Sudeste 32 Este 0.2 -- -- 100
2020-01-24 14:00:00 10.4 19 Este 31 Sudeste 0.6 -- -- 100
2020-01-24 13:00:00 10.1 14 Sudeste 29 Este 0.4 -- -- 100
2020-01-24 12:00:00 9.9 15 Este 28 Este 1.2 -- -- 100
2020-01-24 11:00:00 9.7 14 Este 23 Sudeste 0.6 -- -- 100
2020-01-24 10:00:00 9.4 10 Sudeste 26 Este 0.8 -- -- 100
2020-01-24 09:00:00 9.3 10 Este 21 Este 0 -- -- 100
2020-01-24 08:00:00 9.3 8 Este 21 Este 0 -- -- 100
2020-01-24 07:00:00 9.2 6 Este 17 Este 0 -- -- 100
2020-01-24 06:00:00 9.1 7 Sudeste 24 Sudeste 0 -- -- 100
2020-01-24 05:00:00 9.1 8 Sudeste 18 Sur 0 -- -- 100
2020-01-24 04:00:00 9.1 9 Sudeste 21 Este 0.2 -- -- 100
2020-01-24 03:00:00 9.2 9 Sudeste 18 Sudeste 0.6 -- -- 100
2020-01-24 02:00:00 9.3 10 Este 17 Sudeste 0.2 -- -- 100
2020-01-24 01:00:00 9.4 8 Sudeste 23 Sudeste 0 -- -- 100
2020-01-24 00:00:00 9.6 15 Sudeste 24 Sudeste 0.2 -- -- 100
2020-01-23 23:00:00 9.7 8 Sudeste 15 Sur 0.8 -- -- 100
2020-01-23 22:00:00 9.6 7 Sudeste 18 Este 1 -- -- 100
2020-01-23 21:00:00 9.7 10 Sudeste 21 Sur 0.2 -- -- 100
2020-01-23 20:00:00 9.9 8 Sudeste 29 Sudeste 0 -- -- 99
2020-01-23 19:00:00 9.9 13 Sur 27 Este 0 -- -- 98
2020-01-23 18:00:00 10 17 Sudeste 25 Sur 0 -- -- 96
2020-01-23 17:00:00 10 9 Sudeste 33 Sur 0 -- -- 96
2020-01-23 16:00:00 10.4 16 Sudeste 30 Sudeste 0 -- -- 94
2020-01-23 15:00:00 10.5 9 Sudeste 23 Este 0 -- -- 96
2020-01-23 14:00:00 9.6 10 Sudeste 30 Este 0 -- -- 97
2020-01-23 13:00:00 9.2 10 Sudeste 30 Sudeste 0 -- -- 99
2020-01-23 12:00:00 9.1 11 Sudeste 27 Este 0.4 -- -- 100
2020-01-23 11:00:00 8.6 16 Este 30 Sudeste 2.4 -- -- 100
2020-01-23 10:00:00 8.5 13 Sudeste 27 Este 0.2 -- -- 100
2020-01-23 09:00:00 8.5 13 Este 27 Este 0.8 -- -- 100
2020-01-23 08:00:00 8.6 11 Sudeste 22 Sudeste 0.2 -- -- 100
2020-01-23 07:00:00 8.4 14 Sudeste 23 Sudeste 0.4 -- -- 100
2020-01-23 06:00:00 8.3 14 Este 24 Este 0.2 -- -- 100
2020-01-23 05:00:00 8.1 9 Sudeste 24 Este 0 -- -- 100
2020-01-23 04:00:00 8.1 14 Sudeste 26 Este 0 -- -- 100
2020-01-23 03:00:00 8.2 9 Sudeste 26 Sur 0 -- -- 100
2020-01-23 02:00:00 8.2 12 Sudeste 27 Sur 0 -- -- 100
2020-01-23 01:00:00 8.3 12 Sudeste 26 Sur 0 -- -- 100
2020-01-23 00:00:00 8.1 11 Sudeste 29 Sur 0 -- -- 100
2020-01-22 23:00:00 8.2 13 Sudeste 29 Sudeste 0.2 -- -- 99
2020-01-22 22:00:00 8.1 16 Este 28 Este 0 -- -- 99
2020-01-22 21:00:00 8.1 13 Sudeste 28 Este 0.6 -- -- 100
2020-01-22 20:00:00 8 15 Este 29 Este 0.8 -- -- 100
2020-01-22 19:00:00 7.7 10 Este 18 Nordeste 1 -- -- 100
2020-01-22 18:00:00 7.6 12 Nordeste 19 Este 2.4 -- -- 99
2020-01-22 17:00:00 7.7 10 Este 18 Este 2.6 -- -- 98
2020-01-22 16:00:00 7.9 7 Este 24 Este 0.2 -- -- 97
2020-01-22 15:00:00 7.7 11 Este 21 Este 0.2 -- -- 97
2020-01-22 14:00:00 7.5 7 Sudeste 20 Sur 0 -- -- 96
2020-01-22 13:00:00 7.3 3 Sudeste 14 Sudeste 0 -- -- 97
2020-01-22 12:00:00 7.3 10 Este 21 Este 0 -- -- 96
2020-01-22 11:00:00 7.2 5 Sudeste 13 Este 0 -- -- 95
2020-01-22 10:00:00 7.1 5 Sudeste 10 Sur 0 -- -- 95
2020-01-22 09:00:00 7.4 3 Este 14 Nordeste 0 -- -- 92
2020-01-22 08:00:00 7.6 10 Este 17 Este 0 -- -- 90
2020-01-22 07:00:00 7.6 9 Este 16 Este 0 -- -- 86
2020-01-22 06:00:00 7.8 8 Este 12 Este 0 -- -- 81
2020-01-22 05:00:00 7.9 5 Norte 8 Norte 0 -- -- 80
2020-01-22 04:00:00 8 4 Norte 6 Norte 0 -- -- 78
2020-01-22 03:00:00 8.1 3 Norte 9 Norte 0 -- -- 77
2020-01-22 02:00:00 8 4 Nordeste 7 Norte 0 -- -- 79
2020-01-22 01:00:00 8.4 5 Norte 11 Este 0 -- -- 75
2020-01-22 00:00:00 8.5 7 Este 11 Este 0 -- -- 75
2020-01-21 23:00:00 8.3 7 Este 10 Nordeste 0 -- -- 75
2020-01-21 22:00:00 8.1 2 Nordeste 5 Nordeste 0 -- -- 76
2020-01-21 21:00:00 8.8 4 Nordeste 8 Nordeste 0 -- -- 72
2020-01-21 20:00:00 9 3 Norte 9 Norte 0 -- -- 70
2020-01-21 19:00:00 9.4 5 Norte 19 Nordeste 0 -- -- 68
2020-01-21 18:00:00 10.1 16 Nordeste 28 Nordeste 0 -- -- 64
2020-01-21 17:00:00 11 17 Nordeste 24 Nordeste 0 -- -- 60
2020-01-21 16:00:00 11.4 17 Nordeste 30 Nordeste 0 -- -- 59
2020-01-21 15:00:00 12.7 20 Nordeste 33 Norte 0 -- -- 56
2020-01-21 14:00:00 12.9 7 Norte 20 Norte 0 -- -- 55
2020-01-21 13:00:00 10.9 11 Noroeste 18 Noroeste 0 -- -- 61
2020-01-21 12:00:00 9.1 10 Noroeste 18 Noroeste 0 -- -- 66
2020-01-21 11:00:00 7.5 9 Noroeste 15 Noroeste 0 -- -- 71
2020-01-21 10:00:00 4.9 4 Norte 10 Norte 0 -- -- 79
2020-01-21 09:00:00 3.6 9 Noroeste 14 Oeste 0 -- -- 83
2020-01-21 08:00:00 3.6 6 Noroeste 15 Noroeste 0 -- -- 84
2020-01-21 07:00:00 4.2 11 Noroeste 18 Noroeste 0 -- -- 82
2020-01-21 06:00:00 5.6 7 Norte 15 Norte 0 -- -- 76
2020-01-21 05:00:00 6.1 9 Norte 14 Norte 0 -- -- 74
2020-01-21 04:00:00 6 6 Norte 12 Norte 0 -- -- 76
2020-01-21 03:00:00 6.2 6 Norte 12 Noroeste 0 -- -- 75
2020-01-21 02:00:00 8 12 Nordeste 30 Nordeste 0 -- -- 69
2020-01-21 01:00:00 7.9 16 Nordeste 33 Este 0 -- -- 68
2020-01-21 00:00:00 7.7 14 Nordeste 25 Este 0 -- -- 69
2020-01-20 23:00:00 7.6 16 Este 30 Este 0 -- -- 68
2020-01-20 22:00:00 6.8 8 Nordeste 26 Nordeste 0 -- -- 69
2020-01-20 21:00:00 7.5 18 Nordeste 33 Nordeste 0 -- -- 64
2020-01-20 20:00:00 7.7 22 Nordeste 38 Este 0 -- -- 62
2020-01-20 19:00:00 7.9 20 Nordeste 30 Nordeste 0 -- -- 61
2020-01-20 18:00:00 8.6 17 Nordeste 36 Nordeste 0 -- -- 59
2020-01-20 17:00:00 9.4 22 Este 42 Nordeste 0 -- -- 55
2020-01-20 16:00:00 9.2 26 Nordeste 51 Nordeste 0 -- -- 54
2020-01-20 15:00:00 9.7 30 Nordeste 54 Nordeste 0 -- -- 50
2020-01-20 14:00:00 9.2 28 Nordeste 53 Nordeste 0 -- -- 49
2020-01-20 13:00:00 9 28 Nordeste 48 Nordeste 0 -- -- 46
2020-01-20 12:00:00 8.9 29 Nordeste 48 Nordeste 0 -- -- 44
2020-01-20 11:00:00 8.3 26 Nordeste 42 Nordeste 0 -- -- 45
2020-01-20 10:00:00 7.1 21 Nordeste 37 Nordeste 0 -- -- 46
2020-01-20 09:00:00 6 17 Nordeste 39 Nordeste 0 -- -- 50
2020-01-20 08:00:00 6.3 28 Nordeste 46 Nordeste 0 -- -- 47
2020-01-20 07:00:00 6.5 26 Nordeste 39 Nordeste 0 -- -- 47
2020-01-20 06:00:00 6.8 23 Nordeste 38 Nordeste 0 -- -- 48
2020-01-20 05:00:00 7.3 20 Nordeste 40 Nordeste 0 -- -- 48
2020-01-20 04:00:00 7 14 Nordeste 36 Nordeste 0 -- -- 50
2020-01-20 03:00:00 7.1 14 Nordeste 28 Nordeste 0 -- -- 49
2020-01-20 02:00:00 6.4 9 Norte 24 Norte 0 -- -- 54
2020-01-20 01:00:00 7.1 16 Norte 28 Norte 0 -- -- 57
2020-01-20 00:00:00 7.7 15 Norte 34 Norte 0 -- -- 57
2020-01-19 23:00:00 8.7 13 Norte 27 Norte 0 -- -- 54
2020-01-19 22:00:00 9.2 19 Norte 36 Norte 0 -- -- 54
2020-01-19 21:00:00 9.9 16 Norte 30 Norte 0 -- -- 54
2020-01-19 20:00:00 10.8 16 Norte 26 Norte 0 -- -- 58
2020-01-19 19:00:00 12 16 Norte 32 Nordeste 0 -- -- 57
2020-01-19 18:00:00 12.8 25 Norte 41 Nordeste 0 -- -- 55
2020-01-19 17:00:00 13.5 22 Norte 41 Norte 0 -- -- 54
2020-01-19 16:00:00 13.7 30 Norte 49 Norte 0 -- -- 52
2020-01-19 15:00:00 13.5 26 Norte 41 Norte 0 -- -- 59
2020-01-19 14:00:00 12.9 21 Norte 37 Norte 0 -- -- 65
2020-01-19 13:00:00 12.1 15 Norte 31 Norte 0 -- -- 72
2020-01-19 12:00:00 10.8 17 Norte 34 Norte 0 -- -- 82
2020-01-19 11:00:00 9.4 18 Norte 35 Norte 0 -- -- 91
2020-01-19 10:00:00 8.8 19 Norte 32 Noroeste 0 -- -- 94
2020-01-19 09:00:00 8.6 16 Noroeste 32 Noroeste 0 -- -- 95
2020-01-19 08:00:00 8.6 15 Noroeste 25 Noroeste 0 -- -- 94
2020-01-19 07:00:00 8.4 15 Noroeste 31 Noroeste 0 -- -- 93
2020-01-19 06:00:00 8.2 20 Noroeste 33 Noroeste 0 -- -- 94
2020-01-19 05:00:00 8.7 19 Noroeste 31 Noroeste 0 -- -- 94
2020-01-19 04:00:00 9.2 17 Noroeste 37 Noroeste 0 -- -- 91
2020-01-19 03:00:00 10.3 27 Noroeste 40 Noroeste 0 -- -- 88
2020-01-19 02:00:00 10.6 18 Noroeste 30 Noroeste 0 -- -- 94
2020-01-19 01:00:00 10.4 10 Noroeste 26 Oeste 0 -- -- 96
2020-01-19 00:00:00 11.2 18 Noroeste 33 Noroeste 0 -- -- 93
2020-01-18 23:00:00 11.7 21 Noroeste 42 Noroeste 0 -- -- 95
2020-01-18 22:00:00 12 25 Noroeste 43 Oeste 0 -- -- 94
2020-01-18 21:00:00 12.9 18 Oeste 30 Noroeste 0 -- -- 97
2020-01-18 20:00:00 13.5 16 Oeste 31 Oeste 0 -- -- 98
2020-01-18 19:00:00 13.7 16 Oeste 30 Oeste 0.6 -- -- 94
2020-01-18 18:00:00 15 15 Oeste 27 Oeste 0.2 -- -- 97
2020-01-18 17:00:00 15.8 17 Oeste 28 Oeste 0 -- -- 98
2020-01-18 16:00:00 15.9 15 Oeste 27 Noroeste 0 -- -- 100
2020-01-18 15:00:00 15.5 13 Oeste 27 Sudoeste 0.2 -- -- 100
2020-01-18 14:00:00 14.8 14 Sudoeste 27 Sudoeste 0.2 -- -- 100
2020-01-18 13:00:00 13.7 12 Sudoeste 22 Sur 1.4 -- -- 100
2020-01-18 12:00:00 12.1 16 Sur 23 Sur 1.4 -- -- 100
2020-01-18 11:00:00 10.6 18 Sur 28 Sur 0.4 -- -- 100
2020-01-18 10:00:00 10.2 15 Sur 22 Sudeste 2.2 -- -- 100
2020-01-18 09:00:00 10.4 12 Sur 23 Sudeste 0.6 -- -- 100
2020-01-18 08:00:00 10.5 12 Sur 21 Sur 0.6 -- -- 100
2020-01-18 07:00:00 10.9 12 Sur 18 Sur 0 -- -- 100
2020-01-18 06:00:00 11 15 Sur 24 Sur 0 -- -- 98
2020-01-18 05:00:00 10.9 13 Sur 22 Sur 0 -- -- 96
2020-01-18 04:00:00 11.2 16 Sur 23 Sur 0 -- -- 94
2020-01-18 03:00:00 11.7 12 Sur 18 Sudeste 0 -- -- 92
2020-01-18 02:00:00 12.1 10 Sudeste 14 Sudeste 0 -- -- 93
2020-01-18 01:00:00 12.3 5 Sur 10 Sudeste 0 -- -- 93
2020-01-18 00:00:00 12.1 6 Sur 11 Sur 0 -- -- 93